sensor_id;sensor_type;location;lat;lon;timestamp;P1;durP1;ratioP1;P2;durP2;ratioP2
66402;SDS011;53212;52.112;5.144;2023-04-24T00:00:45;1.30;;;1.10;;
66402;SDS011;53212;52.112;5.144;2023-04-24T00:03:12;1.30;;;1.10;;
66402;SDS011;53212;52.112;5.144;2023-04-24T00:05:38;1.30;;;1.20;;
66402;SDS011;53212;52.112;5.144;2023-04-24T00:08:05;1.70;;;0.80;;
66402;SDS011;53212;52.112;5.144;2023-04-24T00:10:31;2.40;;;1.00;;
66402;SDS011;53212;52.112;5.144;2023-04-24T00:12:56;0.70;;;0.50;;
66402;SDS011;53212;52.112;5.144;2023-04-24T00:15:22;0.60;;;0.60;;
66402;SDS011;53212;52.112;5.144;2023-04-24T00:17:47;0.70;;;0.70;;
66402;SDS011;53212;52.112;5.144;2023-04-24T00:20:13;1.40;;;0.80;;
66402;SDS011;53212;52.112;5.144;2023-04-24T00:22:40;1.20;;;0.90;;
66402;SDS011;53212;52.112;5.144;2023-04-24T00:25:05;1.30;;;0.70;;
66402;SDS011;53212;52.112;5.144;2023-04-24T00:27:31;1.50;;;0.80;;
66402;SDS011;53212;52.112;5.144;2023-04-24T00:29:56;0.80;;;0.70;;
66402;SDS011;53212;52.112;5.144;2023-04-24T00:32:22;0.80;;;0.80;;
66402;SDS011;53212;52.112;5.144;2023-04-24T00:34:47;0.90;;;0.70;;
66402;SDS011;53212;52.112;5.144;2023-04-24T00:37:13;1.00;;;0.80;;
66402;SDS011;53212;52.112;5.144;2023-04-24T00:39:38;0.90;;;0.90;;
66402;SDS011;53212;52.112;5.144;2023-04-24T00:42:04;0.80;;;0.80;;
66402;SDS011;53212;52.112;5.144;2023-04-24T00:44:32;1.10;;;0.90;;
66402;SDS011;53212;52.112;5.144;2023-04-24T00:46:59;1.10;;;1.10;;
66402;SDS011;53212;52.112;5.144;2023-04-24T00:49:26;1.40;;;1.20;;
66402;SDS011;53212;52.112;5.144;2023-04-24T00:51:52;1.00;;;1.00;;
66402;SDS011;53212;52.112;5.144;2023-04-24T00:54:19;1.20;;;1.20;;
66402;SDS011;53212;52.112;5.144;2023-04-24T00:56:45;1.40;;;1.40;;
66402;SDS011;53212;52.112;5.144;2023-04-24T00:59:12;1.90;;;1.80;;
66402;SDS011;53212;52.112;5.144;2023-04-24T01:01:38;1.60;;;1.50;;
66402;SDS011;53212;52.112;5.144;2023-04-24T01:04:07;2.30;;;2.10;;
66402;SDS011;53212;52.112;5.144;2023-04-24T01:06:34;2.90;;;2.60;;
66402;SDS011;53212;52.112;5.144;2023-04-24T01:09:03;2.80;;;2.60;;
66402;SDS011;53212;52.112;5.144;2023-04-24T01:11:29;2.90;;;2.70;;
66402;SDS011;53212;52.112;5.144;2023-04-24T01:13:55;2.90;;;2.70;;
66402;SDS011;53212;52.112;5.144;2023-04-24T01:16:21;3.50;;;3.20;;
66402;SDS011;53212;52.112;5.144;2023-04-24T01:18:47;3.20;;;2.70;;
66402;SDS011;53212;52.112;5.144;2023-04-24T01:21:14;2.80;;;2.60;;
66402;SDS011;53212;52.112;5.144;2023-04-24T01:23:45;3.00;;;2.80;;
66402;SDS011;53212;52.112;5.144;2023-04-24T01:26:12;3.20;;;2.90;;
66402;SDS011;53212;52.112;5.144;2023-04-24T01:28:39;2.40;;;2.30;;
66402;SDS011;53212;52.112;5.144;2023-04-24T01:31:05;2.90;;;2.70;;
66402;SDS011;53212;52.112;5.144;2023-04-24T01:33:31;3.10;;;2.90;;
66402;SDS011;53212;52.112;5.144;2023-04-24T01:35:57;4.50;;;3.10;;
66402;SDS011;53212;52.112;5.144;2023-04-24T01:38:22;3.20;;;3.00;;
66402;SDS011;53212;52.112;5.144;2023-04-24T01:40:48;3.70;;;3.40;;
66402;SDS011;53212;52.112;5.144;2023-04-24T01:43:15;4.20;;;3.80;;
66402;SDS011;53212;52.112;5.144;2023-04-24T01:45:40;3.60;;;3.40;;
66402;SDS011;53212;52.112;5.144;2023-04-24T01:48:06;4.20;;;3.90;;
66402;SDS011;53212;52.112;5.144;2023-04-24T01:50:31;3.70;;;3.50;;
66402;SDS011;53212;52.112;5.144;2023-04-24T01:52:57;4.20;;;3.80;;
66402;SDS011;53212;52.112;5.144;2023-04-24T01:55:23;3.40;;;3.20;;
66402;SDS011;53212;52.112;5.144;2023-04-24T01:57:48;3.90;;;3.60;;
66402;SDS011;53212;52.112;5.144;2023-04-24T02:00:14;3.40;;;3.10;;
66402;SDS011;53212;52.112;5.144;2023-04-24T02:02:40;4.60;;;3.00;;
66402;SDS011;53212;52.112;5.144;2023-04-24T02:05:07;3.00;;;2.70;;
66402;SDS011;53212;52.112;5.144;2023-04-24T02:07:33;3.60;;;3.30;;
66402;SDS011;53212;52.112;5.144;2023-04-24T02:09:58;3.00;;;2.80;;
66402;SDS011;53212;52.112;5.144;2023-04-24T02:12:24;2.90;;;2.70;;
66402;SDS011;53212;52.112;5.144;2023-04-24T02:14:49;2.90;;;2.70;;
66402;SDS011;53212;52.112;5.144;2023-04-24T02:17:15;2.90;;;2.70;;
66402;SDS011;53212;52.112;5.144;2023-04-24T02:19:41;3.30;;;3.10;;
66402;SDS011;53212;52.112;5.144;2023-04-24T02:22:06;3.30;;;3.00;;
66402;SDS011;53212;52.112;5.144;2023-04-24T02:24:32;3.60;;;3.40;;
66402;SDS011;53212;52.112;5.144;2023-04-24T02:26:57;3.70;;;3.40;;
66402;SDS011;53212;52.112;5.144;2023-04-24T02:29:23;3.70;;;3.30;;
66402;SDS011;53212;52.112;5.144;2023-04-24T02:31:48;3.80;;;3.50;;
66402;SDS011;53212;52.112;5.144;2023-04-24T02:34:14;3.60;;;3.40;;
66402;SDS011;53212;52.112;5.144;2023-04-24T02:36:39;3.80;;;3.50;;
66402;SDS011;53212;52.112;5.144;2023-04-24T02:39:05;3.40;;;3.10;;
66402;SDS011;53212;52.112;5.144;2023-04-24T02:41:30;3.90;;;3.10;;
66402;SDS011;53212;52.112;5.144;2023-04-24T02:44:00;3.40;;;3.10;;
66402;SDS011;53212;52.112;5.144;2023-04-24T02:46:26;2.90;;;2.70;;
66402;SDS011;53212;52.112;5.144;2023-04-24T02:48:51;3.00;;;2.80;;
66402;SDS011;53212;52.112;5.144;2023-04-24T02:51:17;2.90;;;2.70;;
66402;SDS011;53212;52.112;5.144;2023-04-24T02:53:42;3.50;;;2.80;;
66402;SDS011;53212;52.112;5.144;2023-04-24T02:56:08;3.00;;;2.70;;
66402;SDS011;53212;52.112;5.144;2023-04-24T02:58:33;3.00;;;2.80;;
66402;SDS011;53212;52.112;5.144;2023-04-24T03:00:59;2.60;;;2.40;;
66402;SDS011;53212;52.112;5.144;2023-04-24T03:03:25;2.70;;;2.50;;
66402;SDS011;53212;52.112;5.144;2023-04-24T03:05:51;2.80;;;2.60;;
66402;SDS011;53212;52.112;5.144;2023-04-24T03:08:17;4.20;;;3.40;;
66402;SDS011;53212;52.112;5.144;2023-04-24T03:10:42;2.90;;;2.70;;
66402;SDS011;53212;52.112;5.144;2023-04-24T03:13:08;3.60;;;3.30;;
66402;SDS011;53212;52.112;5.144;2023-04-24T03:15:34;3.10;;;2.90;;
66402;SDS011;53212;52.112;5.144;2023-04-24T03:17:59;3.10;;;2.90;;
66402;SDS011;53212;52.112;5.144;2023-04-24T03:20:25;3.60;;;2.40;;
66402;SDS011;53212;52.112;5.144;2023-04-24T03:22:51;3.40;;;1.90;;
66402;SDS011;53212;52.112;5.144;2023-04-24T03:25:17;2.30;;;2.10;;
66402;SDS011;53212;52.112;5.144;2023-04-24T03:27:42;1.80;;;1.70;;
66402;SDS011;53212;52.112;5.144;2023-04-24T03:30:08;2.20;;;2.10;;
66402;SDS011;53212;52.112;5.144;2023-04-24T03:32:33;2.50;;;2.30;;
66402;SDS011;53212;52.112;5.144;2023-04-24T03:34:59;2.50;;;2.30;;
66402;SDS011;53212;52.112;5.144;2023-04-24T03:37:25;3.30;;;2.40;;
66402;SDS011;53212;52.112;5.144;2023-04-24T03:39:51;3.40;;;3.10;;
66402;SDS011;53212;52.112;5.144;2023-04-24T03:42:17;3.30;;;3.10;;
66402;SDS011;53212;52.112;5.144;2023-04-24T03:44:42;3.60;;;3.30;;
66402;SDS011;53212;52.112;5.144;2023-04-24T03:47:08;3.40;;;3.20;;
66402;SDS011;53212;52.112;5.144;2023-04-24T03:49:33;3.60;;;3.30;;
66402;SDS011;53212;52.112;5.144;2023-04-24T03:51:59;3.60;;;3.30;;
66402;SDS011;53212;52.112;5.144;2023-04-24T03:54:24;4.00;;;3.30;;
66402;SDS011;53212;52.112;5.144;2023-04-24T03:56:50;3.60;;;3.30;;
66402;SDS011;53212;52.112;5.144;2023-04-24T03:59:16;3.80;;;3.50;;
66402;SDS011;53212;52.112;5.144;2023-04-24T04:01:41;3.60;;;3.30;;
66402;SDS011;53212;52.112;5.144;2023-04-24T04:04:07;3.00;;;2.80;;
66402;SDS011;53212;52.112;5.144;2023-04-24T04:06:33;3.20;;;3.00;;
66402;SDS011;53212;52.112;5.144;2023-04-24T04:08:59;3.40;;;3.20;;
66402;SDS011;53212;52.112;5.144;2023-04-24T04:11:25;3.20;;;2.90;;
66402;SDS011;53212;52.112;5.144;2023-04-24T04:13:50;3.20;;;3.00;;
66402;SDS011;53212;52.112;5.144;2023-04-24T04:16:16;3.70;;;3.30;;
66402;SDS011;53212;52.112;5.144;2023-04-24T04:18:43;3.70;;;3.40;;
66402;SDS011;53212;52.112;5.144;2023-04-24T04:21:08;3.70;;;3.40;;
66402;SDS011;53212;52.112;5.144;2023-04-24T04:23:34;3.80;;;3.50;;
66402;SDS011;53212;52.112;5.144;2023-04-24T04:26:00;4.40;;;3.70;;
66402;SDS011;53212;52.112;5.144;2023-04-24T04:28:26;3.70;;;3.40;;
66402;SDS011;53212;52.112;5.144;2023-04-24T04:30:52;3.80;;;3.50;;
66402;SDS011;53212;52.112;5.144;2023-04-24T04:33:21;4.20;;;3.80;;
66402;SDS011;53212;52.112;5.144;2023-04-24T04:35:46;3.60;;;3.40;;
66402;SDS011;53212;52.112;5.144;2023-04-24T04:38:17;3.90;;;3.50;;
66402;SDS011;53212;52.112;5.144;2023-04-24T04:40:43;4.10;;;3.80;;
66402;SDS011;53212;52.112;5.144;2023-04-24T04:43:09;3.70;;;3.40;;
66402;SDS011;53212;52.112;5.144;2023-04-24T04:45:36;4.10;;;3.80;;
66402;SDS011;53212;52.112;5.144;2023-04-24T04:48:04;4.40;;;4.00;;
66402;SDS011;53212;52.112;5.144;2023-04-24T04:50:32;5.20;;;4.40;;
66402;SDS011;53212;52.112;5.144;2023-04-24T04:52:58;4.30;;;4.00;;
66402;SDS011;53212;52.112;5.144;2023-04-24T04:55:23;3.30;;;3.10;;
66402;SDS011;53212;52.112;5.144;2023-04-24T04:57:49;2.80;;;2.60;;
66402;SDS011;53212;52.112;5.144;2023-04-24T05:00:15;3.20;;;2.70;;
66402;SDS011;53212;52.112;5.144;2023-04-24T05:02:41;2.90;;;2.70;;
66402;SDS011;53212;52.112;5.144;2023-04-24T05:05:07;3.00;;;2.70;;
66402;SDS011;53212;52.112;5.144;2023-04-24T05:07:33;2.90;;;2.70;;
66402;SDS011;53212;52.112;5.144;2023-04-24T05:09:58;3.30;;;3.00;;
66402;SDS011;53212;52.112;5.144;2023-04-24T05:12:24;3.40;;;3.10;;
66402;SDS011;53212;52.112;5.144;2023-04-24T05:14:49;3.10;;;2.90;;
66402;SDS011;53212;52.112;5.144;2023-04-24T05:17:15;2.40;;;2.30;;
66402;SDS011;53212;52.112;5.144;2023-04-24T05:19:40;2.00;;;1.80;;
66402;SDS011;53212;52.112;5.144;2023-04-24T05:22:06;2.10;;;1.80;;
66402;SDS011;53212;52.112;5.144;2023-04-24T05:24:35;1.40;;;1.30;;
66402;SDS011;53212;52.112;5.144;2023-04-24T05:27:02;1.50;;;1.10;;
66402;SDS011;53212;52.112;5.144;2023-04-24T05:29:29;0.80;;;0.80;;
66402;SDS011;53212;52.112;5.144;2023-04-24T05:31:59;0.90;;;0.90;;
66402;SDS011;53212;52.112;5.144;2023-04-24T05:34:26;0.60;;;0.50;;
66402;SDS011;53212;52.112;5.144;2023-04-24T05:36:51;1.40;;;0.70;;
66402;SDS011;53212;52.112;5.144;2023-04-24T05:39:17;0.80;;;0.70;;
66402;SDS011;53212;52.112;5.144;2023-04-24T05:41:42;0.40;;;0.40;;
66402;SDS011;53212;52.112;5.144;2023-04-24T05:44:08;0.90;;;0.60;;
66402;SDS011;53212;52.112;5.144;2023-04-24T05:46:34;0.60;;;0.60;;
66402;SDS011;53212;52.112;5.144;2023-04-24T05:49:00;1.60;;;0.70;;
66402;SDS011;53212;52.112;5.144;2023-04-24T05:51:25;1.00;;;0.90;;
66402;SDS011;53212;52.112;5.144;2023-04-24T05:53:51;2.50;;;1.00;;
66402;SDS011;53212;52.112;5.144;2023-04-24T05:56:17;1.30;;;1.00;;
66402;SDS011;53212;52.112;5.144;2023-04-24T05:58:43;1.40;;;1.00;;
66402;SDS011;53212;52.112;5.144;2023-04-24T06:01:09;1.80;;;1.10;;
66402;SDS011;53212;52.112;5.144;2023-04-24T06:03:34;2.10;;;0.90;;
66402;SDS011;53212;52.112;5.144;2023-04-24T06:06:00;1.20;;;1.10;;
66402;SDS011;53212;52.112;5.144;2023-04-24T06:08:25;1.10;;;1.10;;
66402;SDS011;53212;52.112;5.144;2023-04-24T06:10:51;1.20;;;1.10;;
66402;SDS011;53212;52.112;5.144;2023-04-24T06:13:17;2.00;;;1.90;;
66402;SDS011;53212;52.112;5.144;2023-04-24T06:15:43;2.70;;;2.50;;
66402;SDS011;53212;52.112;5.144;2023-04-24T06:18:08;4.10;;;3.70;;
66402;SDS011;53212;52.112;5.144;2023-04-24T06:20:35;5.90;;;4.40;;
66402;SDS011;53212;52.112;5.144;2023-04-24T06:23:01;5.10;;;4.60;;
66402;SDS011;53212;52.112;5.144;2023-04-24T06:25:27;7.50;;;6.00;;
66402;SDS011;53212;52.112;5.144;2023-04-24T06:27:55;7.70;;;6.50;;
66402;SDS011;53212;52.112;5.144;2023-04-24T06:30:21;8.50;;;7.00;;
66402;SDS011;53212;52.112;5.144;2023-04-24T06:32:46;7.60;;;6.70;;
66402;SDS011;53212;52.112;5.144;2023-04-24T06:35:12;9.10;;;7.90;;
66402;SDS011;53212;52.112;5.144;2023-04-24T06:37:39;9.40;;;7.50;;
66402;SDS011;53212;52.112;5.144;2023-04-24T06:40:06;11.70;;;7.80;;
66402;SDS011;53212;52.112;5.144;2023-04-24T06:42:32;11.30;;;9.30;;
66402;SDS011;53212;52.112;5.144;2023-04-24T06:44:57;12.50;;;9.20;;
66402;SDS011;53212;52.112;5.144;2023-04-24T06:47:23;12.90;;;9.00;;
66402;SDS011;53212;52.112;5.144;2023-04-24T06:49:48;12.00;;;9.10;;
66402;SDS011;53212;52.112;5.144;2023-04-24T06:52:16;10.70;;;8.00;;
66402;SDS011;53212;52.112;5.144;2023-04-24T06:54:41;12.30;;;8.40;;
66402;SDS011;53212;52.112;5.144;2023-04-24T06:57:08;11.50;;;7.70;;
66402;SDS011;53212;52.112;5.144;2023-04-24T06:59:34;12.40;;;8.70;;
66402;SDS011;53212;52.112;5.144;2023-04-24T07:01:59;13.20;;;8.70;;
66402;SDS011;53212;52.112;5.144;2023-04-24T07:04:25;13.90;;;8.20;;
66402;SDS011;53212;52.112;5.144;2023-04-24T07:06:51;13.50;;;8.30;;
66402;SDS011;53212;52.112;5.144;2023-04-24T07:09:16;12.00;;;7.90;;
66402;SDS011;53212;52.112;5.144;2023-04-24T07:11:44;13.10;;;7.80;;
66402;SDS011;53212;52.112;5.144;2023-04-24T07:14:10;13.70;;;8.50;;
66402;SDS011;53212;52.112;5.144;2023-04-24T07:16:35;12.90;;;8.20;;
66402;SDS011;53212;52.112;5.144;2023-04-24T07:19:01;14.30;;;8.60;;
66402;SDS011;53212;52.112;5.144;2023-04-24T07:21:26;13.20;;;8.10;;
66402;SDS011;53212;52.112;5.144;2023-04-24T07:23:52;13.10;;;8.20;;
66402;SDS011;53212;52.112;5.144;2023-04-24T07:26:19;15.60;;;8.10;;
66402;SDS011;53212;52.112;5.144;2023-04-24T07:28:45;15.60;;;7.20;;
66402;SDS011;53212;52.112;5.144;2023-04-24T07:31:11;14.50;;;6.90;;
66402;SDS011;53212;52.112;5.144;2023-04-24T07:33:37;12.30;;;6.30;;
66402;SDS011;53212;52.112;5.144;2023-04-24T07:36:03;13.40;;;6.40;;
66402;SDS011;53212;52.112;5.144;2023-04-24T07:38:30;14.80;;;6.50;;
66402;SDS011;53212;52.112;5.144;2023-04-24T07:40:56;18.50;;;6.50;;
66402;SDS011;53212;52.112;5.144;2023-04-24T07:43:21;16.10;;;6.00;;
66402;SDS011;53212;52.112;5.144;2023-04-24T07:45:51;13.00;;;5.60;;
66402;SDS011;53212;52.112;5.144;2023-04-24T07:48:17;12.50;;;5.10;;
66402;SDS011;53212;52.112;5.144;2023-04-24T07:50:43;15.30;;;5.10;;
66402;SDS011;53212;52.112;5.144;2023-04-24T07:53:10;17.00;;;5.30;;
66402;SDS011;53212;52.112;5.144;2023-04-24T07:55:35;15.90;;;4.80;;
66402;SDS011;53212;52.112;5.144;2023-04-24T07:58:01;15.90;;;5.10;;
66402;SDS011;53212;52.112;5.144;2023-04-24T08:00:26;17.50;;;4.90;;
66402;SDS011;53212;52.112;5.144;2023-04-24T08:02:52;12.50;;;4.40;;
66402;SDS011;53212;52.112;5.144;2023-04-24T08:05:17;12.20;;;4.20;;
66402;SDS011;53212;52.112;5.144;2023-04-24T08:07:43;18.10;;;4.90;;
66402;SDS011;53212;52.112;5.144;2023-04-24T08:10:10;16.50;;;4.30;;
66402;SDS011;53212;52.112;5.144;2023-04-24T08:12:36;14.20;;;4.10;;
66402;SDS011;53212;52.112;5.144;2023-04-24T08:15:02;15.40;;;3.60;;
66402;SDS011;53212;52.112;5.144;2023-04-24T08:17:28;13.90;;;3.90;;
66402;SDS011;53212;52.112;5.144;2023-04-24T08:19:54;15.30;;;3.70;;
66402;SDS011;53212;52.112;5.144;2023-04-24T08:22:26;10.90;;;3.00;;
66402;SDS011;53212;52.112;5.144;2023-04-24T08:24:55;8.90;;;2.70;;
66402;SDS011;53212;52.112;5.144;2023-04-24T08:27:22;10.20;;;3.10;;
66402;SDS011;53212;52.112;5.144;2023-04-24T08:29:49;13.40;;;3.40;;
66402;SDS011;53212;52.112;5.144;2023-04-24T08:32:15;12.30;;;3.40;;
66402;SDS011;53212;52.112;5.144;2023-04-24T08:34:42;11.40;;;3.10;;
66402;SDS011;53212;52.112;5.144;2023-04-24T08:37:07;9.50;;;3.10;;
66402;SDS011;53212;52.112;5.144;2023-04-24T08:39:33;7.80;;;2.70;;
66402;SDS011;53212;52.112;5.144;2023-04-24T08:41:58;7.70;;;2.50;;
66402;SDS011;53212;52.112;5.144;2023-04-24T08:44:31;7.00;;;2.40;;
66402;SDS011;53212;52.112;5.144;2023-04-24T08:46:57;8.50;;;2.40;;
66402;SDS011;53212;52.112;5.144;2023-04-24T08:49:23;11.10;;;2.60;;
66402;SDS011;53212;52.112;5.144;2023-04-24T08:51:49;13.00;;;3.10;;
66402;SDS011;53212;52.112;5.144;2023-04-24T08:54:15;11.60;;;3.10;;
66402;SDS011;53212;52.112;5.144;2023-04-24T08:56:43;12.50;;;2.90;;
66402;SDS011;53212;52.112;5.144;2023-04-24T08:59:10;8.30;;;2.50;;
66402;SDS011;53212;52.112;5.144;2023-04-24T09:01:36;9.70;;;3.20;;
66402;SDS011;53212;52.112;5.144;2023-04-24T09:04:03;8.40;;;2.80;;
66402;SDS011;53212;52.112;5.144;2023-04-24T09:06:29;11.40;;;2.60;;
66402;SDS011;53212;52.112;5.144;2023-04-24T09:08:59;5.90;;;2.40;;
66402;SDS011;53212;52.112;5.144;2023-04-24T09:11:26;6.90;;;2.50;;
66402;SDS011;53212;52.112;5.144;2023-04-24T09:13:53;8.50;;;3.10;;
66402;SDS011;53212;52.112;5.144;2023-04-24T09:16:20;9.30;;;2.70;;
66402;SDS011;53212;52.112;5.144;2023-04-24T09:18:45;9.70;;;3.30;;
66402;SDS011;53212;52.112;5.144;2023-04-24T09:21:11;9.80;;;3.00;;
66402;SDS011;53212;52.112;5.144;2023-04-24T09:23:37;8.30;;;2.60;;
66402;SDS011;53212;52.112;5.144;2023-04-24T09:26:04;7.00;;;2.40;;
66402;SDS011;53212;52.112;5.144;2023-04-24T09:28:36;5.70;;;2.50;;
66402;SDS011;53212;52.112;5.144;2023-04-24T09:31:13;7.30;;;2.30;;
66402;SDS011;53212;52.112;5.144;2023-04-24T09:33:59;6.10;;;2.40;;
66402;SDS011;53212;52.112;5.144;2023-04-24T09:36:29;8.50;;;2.20;;
66402;SDS011;53212;52.112;5.144;2023-04-24T09:39:03;7.80;;;2.30;;
66402;SDS011;53212;52.112;5.144;2023-04-24T09:41:32;8.20;;;1.90;;
66402;SDS011;53212;52.112;5.144;2023-04-24T09:44:10;6.10;;;1.90;;
66402;SDS011;53212;52.112;5.144;2023-04-24T09:46:45;4.60;;;1.70;;
66402;SDS011;53212;52.112;5.144;2023-04-24T09:49:15;5.10;;;2.10;;
66402;SDS011;53212;52.112;5.144;2023-04-24T09:51:42;6.40;;;1.70;;
66402;SDS011;53212;52.112;5.144;2023-04-24T09:54:19;6.80;;;1.90;;
66402;SDS011;53212;52.112;5.144;2023-04-24T09:56:48;5.70;;;1.60;;
66402;SDS011;53212;52.112;5.144;2023-04-24T09:59:17;4.60;;;1.80;;
66402;SDS011;53212;52.112;5.144;2023-04-24T10:01:43;5.60;;;1.80;;
66402;SDS011;53212;52.112;5.144;2023-04-24T10:04:19;6.40;;;2.00;;
66402;SDS011;53212;52.112;5.144;2023-04-24T10:06:50;6.30;;;1.80;;
66402;SDS011;53212;52.112;5.144;2023-04-24T10:09:18;6.90;;;1.60;;
66402;SDS011;53212;52.112;5.144;2023-04-24T10:11:49;3.80;;;1.30;;
66402;SDS011;53212;52.112;5.144;2023-04-24T10:16:44;2.70;;;1.30;;
66402;SDS011;53212;52.112;5.144;2023-04-24T10:19:12;3.40;;;1.30;;
66402;SDS011;53212;52.112;5.144;2023-04-24T10:21:40;1.40;;;0.90;;
66402;SDS011;53212;52.112;5.144;2023-04-24T10:24:08;3.90;;;1.10;;
66402;SDS011;53212;52.112;5.144;2023-04-24T10:26:35;3.50;;;1.10;;
66402;SDS011;53212;52.112;5.144;2023-04-24T10:29:01;3.00;;;0.90;;
66402;SDS011;53212;52.112;5.144;2023-04-24T10:31:30;2.70;;;0.80;;
66402;SDS011;53212;52.112;5.144;2023-04-24T10:33:57;4.50;;;1.10;;
66402;SDS011;53212;52.112;5.144;2023-04-24T10:36:24;2.90;;;1.20;;
66402;SDS011;53212;52.112;5.144;2023-04-24T10:38:52;5.00;;;1.40;;
66402;SDS011;53212;52.112;5.144;2023-04-24T10:41:20;2.60;;;0.90;;
66402;SDS011;53212;52.112;5.144;2023-04-24T10:44:04;2.10;;;1.10;;
66402;SDS011;53212;52.112;5.144;2023-04-24T10:46:31;2.50;;;1.00;;
66402;SDS011;53212;52.112;5.144;2023-04-24T10:48:57;2.90;;;1.20;;
66402;SDS011;53212;52.112;5.144;2023-04-24T10:51:24;3.90;;;1.20;;
66402;SDS011;53212;52.112;5.144;2023-04-24T10:53:51;2.30;;;1.10;;
66402;SDS011;53212;52.112;5.144;2023-04-24T10:56:16;5.50;;;1.10;;
66402;SDS011;53212;52.112;5.144;2023-04-24T10:58:43;2.80;;;1.10;;
66402;SDS011;53212;52.112;5.144;2023-04-24T11:01:26;2.30;;;0.90;;
66402;SDS011;53212;52.112;5.144;2023-04-24T11:06:43;3.00;;;1.10;;
66402;SDS011;53212;52.112;5.144;2023-04-24T11:09:10;5.40;;;1.20;;
66402;SDS011;53212;52.112;5.144;2023-04-24T11:11:45;5.60;;;1.20;;
66402;SDS011;53212;52.112;5.144;2023-04-24T11:14:14;3.60;;;1.40;;
66402;SDS011;53212;52.112;5.144;2023-04-24T11:16:53;3.90;;;1.30;;
66402;SDS011;53212;52.112;5.144;2023-04-24T11:19:25;4.90;;;1.60;;
66402;SDS011;53212;52.112;5.144;2023-04-24T11:22:03;4.00;;;1.20;;
66402;SDS011;53212;52.112;5.144;2023-04-24T11:24:39;3.60;;;1.40;;
66402;SDS011;53212;52.112;5.144;2023-04-24T11:27:16;2.80;;;1.00;;
66402;SDS011;53212;52.112;5.144;2023-04-24T11:32:29;0.90;;;0.70;;
66402;SDS011;53212;52.112;5.144;2023-04-24T11:35:03;2.00;;;0.90;;
66402;SDS011;53212;52.112;5.144;2023-04-24T11:37:37;2.20;;;0.80;;
66402;SDS011;53212;52.112;5.144;2023-04-24T11:40:04;1.80;;;0.90;;
66402;SDS011;53212;52.112;5.144;2023-04-24T11:42:35;2.00;;;0.80;;
66402;SDS011;53212;52.112;5.144;2023-04-24T11:45:07;2.00;;;0.70;;
66402;SDS011;53212;52.112;5.144;2023-04-24T11:47:34;1.10;;;0.80;;
66402;SDS011;53212;52.112;5.144;2023-04-24T11:50:00;2.80;;;0.90;;
66402;SDS011;53212;52.112;5.144;2023-04-24T11:52:27;2.00;;;0.90;;
66402;SDS011;53212;52.112;5.144;2023-04-24T11:54:53;4.60;;;1.20;;
66402;SDS011;53212;52.112;5.144;2023-04-24T11:57:19;6.00;;;1.30;;
66402;SDS011;53212;52.112;5.144;2023-04-24T11:59:47;3.20;;;1.30;;
66402;SDS011;53212;52.112;5.144;2023-04-24T12:02:26;7.30;;;1.30;;
66402;SDS011;53212;52.112;5.144;2023-04-24T12:04:55;6.50;;;1.50;;
66402;SDS011;53212;52.112;5.144;2023-04-24T12:07:22;3.50;;;1.20;;
66402;SDS011;53212;52.112;5.144;2023-04-24T12:09:50;6.00;;;1.50;;
66402;SDS011;53212;52.112;5.144;2023-04-24T12:12:24;4.20;;;1.30;;
66402;SDS011;53212;52.112;5.144;2023-04-24T12:14:54;3.20;;;1.20;;
66402;SDS011;53212;52.112;5.144;2023-04-24T12:17:27;5.50;;;1.40;;
66402;SDS011;53212;52.112;5.144;2023-04-24T12:20:06;3.20;;;1.20;;
66402;SDS011;53212;52.112;5.144;2023-04-24T12:22:51;4.90;;;1.50;;
66402;SDS011;53212;52.112;5.144;2023-04-24T12:25:20;5.90;;;1.70;;
66402;SDS011;53212;52.112;5.144;2023-04-24T12:27:54;6.90;;;1.70;;
66402;SDS011;53212;52.112;5.144;2023-04-24T12:30:42;6.90;;;1.70;;
66402;SDS011;53212;52.112;5.144;2023-04-24T12:33:10;7.20;;;2.00;;
66402;SDS011;53212;52.112;5.144;2023-04-24T12:35:35;7.90;;;2.30;;
66402;SDS011;53212;52.112;5.144;2023-04-24T12:38:15;7.00;;;1.80;;
66402;SDS011;53212;52.112;5.144;2023-04-24T12:40:41;6.00;;;1.80;;
66402;SDS011;53212;52.112;5.144;2023-04-24T12:43:15;6.80;;;1.90;;
66402;SDS011;53212;52.112;5.144;2023-04-24T12:45:41;6.30;;;2.00;;
66402;SDS011;53212;52.112;5.144;2023-04-24T12:48:07;8.20;;;2.50;;
66402;SDS011;53212;52.112;5.144;2023-04-24T12:50:32;8.00;;;2.30;;
66402;SDS011;53212;52.112;5.144;2023-04-24T12:52:58;7.60;;;2.20;;
66402;SDS011;53212;52.112;5.144;2023-04-24T12:55:23;7.60;;;2.30;;
66402;SDS011;53212;52.112;5.144;2023-04-24T12:57:48;10.30;;;2.80;;
66402;SDS011;53212;52.112;5.144;2023-04-24T13:00:14;7.30;;;2.30;;
66402;SDS011;53212;52.112;5.144;2023-04-24T13:02:40;8.10;;;2.70;;
66402;SDS011;53212;52.112;5.144;2023-04-24T13:05:06;10.20;;;2.50;;
66402;SDS011;53212;52.112;5.144;2023-04-24T13:07:33;8.90;;;2.50;;
66402;SDS011;53212;52.112;5.144;2023-04-24T13:09:58;11.10;;;3.50;;
66402;SDS011;53212;52.112;5.144;2023-04-24T13:12:24;9.50;;;2.70;;
66402;SDS011;53212;52.112;5.144;2023-04-24T13:14:50;9.20;;;3.00;;
66402;SDS011;53212;52.112;5.144;2023-04-24T13:17:16;9.00;;;2.80;;
66402;SDS011;53212;52.112;5.144;2023-04-24T13:19:43;9.70;;;2.90;;
66402;SDS011;53212;52.112;5.144;2023-04-24T13:22:10;8.80;;;2.80;;
66402;SDS011;53212;52.112;5.144;2023-04-24T13:24:36;7.50;;;2.60;;
66402;SDS011;53212;52.112;5.144;2023-04-24T13:27:03;9.70;;;3.10;;
66402;SDS011;53212;52.112;5.144;2023-04-24T13:29:29;6.80;;;2.70;;
66402;SDS011;53212;52.112;5.144;2023-04-24T13:31:54;8.60;;;2.80;;
66402;SDS011;53212;52.112;5.144;2023-04-24T13:34:21;8.80;;;2.60;;
66402;SDS011;53212;52.112;5.144;2023-04-24T13:36:47;8.30;;;2.70;;
66402;SDS011;53212;52.112;5.144;2023-04-24T13:39:12;6.00;;;2.30;;
66402;SDS011;53212;52.112;5.144;2023-04-24T13:41:38;7.40;;;2.50;;
66402;SDS011;53212;52.112;5.144;2023-04-24T13:44:05;7.20;;;2.30;;
66402;SDS011;53212;52.112;5.144;2023-04-24T13:46:31;4.80;;;2.50;;
66402;SDS011;53212;52.112;5.144;2023-04-24T13:48:57;5.80;;;2.40;;
66402;SDS011;53212;52.112;5.144;2023-04-24T13:51:24;8.10;;;2.90;;
66402;SDS011;53212;52.112;5.144;2023-04-24T13:53:52;7.40;;;2.40;;
66402;SDS011;53212;52.112;5.144;2023-04-24T13:56:18;8.10;;;2.60;;
66402;SDS011;53212;52.112;5.144;2023-04-24T13:58:44;7.60;;;2.70;;
66402;SDS011;53212;52.112;5.144;2023-04-24T14:01:09;6.10;;;2.40;;
66402;SDS011;53212;52.112;5.144;2023-04-24T14:03:36;10.10;;;2.90;;
66402;SDS011;53212;52.112;5.144;2023-04-24T14:06:02;7.60;;;2.80;;
66402;SDS011;53212;52.112;5.144;2023-04-24T14:08:28;9.90;;;2.90;;
66402;SDS011;53212;52.112;5.144;2023-04-24T14:10:53;8.80;;;2.90;;
66402;SDS011;53212;52.112;5.144;2023-04-24T14:13:19;9.90;;;3.10;;
66402;SDS011;53212;52.112;5.144;2023-04-24T14:15:44;7.20;;;3.20;;
66402;SDS011;53212;52.112;5.144;2023-04-24T14:18:10;9.20;;;3.00;;
66402;SDS011;53212;52.112;5.144;2023-04-24T14:20:36;10.20;;;2.80;;
66402;SDS011;53212;52.112;5.144;2023-04-24T14:23:01;8.10;;;2.60;;
66402;SDS011;53212;52.112;5.144;2023-04-24T14:25:27;5.40;;;2.30;;
66402;SDS011;53212;52.112;5.144;2023-04-24T14:27:52;7.50;;;2.60;;
66402;SDS011;53212;52.112;5.144;2023-04-24T14:30:18;8.00;;;3.20;;
66402;SDS011;53212;52.112;5.144;2023-04-24T14:32:44;5.80;;;2.60;;
66402;SDS011;53212;52.112;5.144;2023-04-24T14:35:10;10.60;;;3.00;;
66402;SDS011;53212;52.112;5.144;2023-04-24T14:37:36;10.00;;;3.30;;
66402;SDS011;53212;52.112;5.144;2023-04-24T14:40:02;7.10;;;2.90;;
66402;SDS011;53212;52.112;5.144;2023-04-24T14:42:30;9.30;;;3.00;;
66402;SDS011;53212;52.112;5.144;2023-04-24T14:44:55;5.50;;;2.50;;
66402;SDS011;53212;52.112;5.144;2023-04-24T14:47:21;6.00;;;2.50;;
66402;SDS011;53212;52.112;5.144;2023-04-24T14:49:47;6.40;;;3.00;;
66402;SDS011;53212;52.112;5.144;2023-04-24T14:52:13;8.10;;;2.60;;